sensor_id;sensor_type;location;lat;lon;timestamp;temperature;humidity
25450;DHT22;13371;52.080;5.624;2022-11-20T00:00:25;0.70;94.00
25450;DHT22;13371;52.080;5.624;2022-11-20T00:02:50;0.80;94.20
25450;DHT22;13371;52.080;5.624;2022-11-20T00:05:16;0.90;94.00
25450;DHT22;13371;52.080;5.624;2022-11-20T00:07:42;1.00;93.30
25450;DHT22;13371;52.080;5.624;2022-11-20T00:10:08;1.00;93.20
25450;DHT22;13371;52.080;5.624;2022-11-20T00:12:34;1.00;93.30
25450;DHT22;13371;52.080;5.624;2022-11-20T00:14:59;1.30;93.20
25450;DHT22;13371;52.080;5.624;2022-11-20T00:17:25;1.60;92.80
25450;DHT22;13371;52.080;5.624;2022-11-20T00:19:51;1.40;92.40
25450;DHT22;13371;52.080;5.624;2022-11-20T00:22:16;1.20;92.90
25450;DHT22;13371;52.080;5.624;2022-11-20T00:24:42;1.30;92.70
25450;DHT22;13371;52.080;5.624;2022-11-20T00:27:07;1.20;92.50
25450;DHT22;13371;52.080;5.624;2022-11-20T00:29:33;1.10;92.90
25450;DHT22;13371;52.080;5.624;2022-11-20T00:31:59;1.40;92.90
25450;DHT22;13371;52.080;5.624;2022-11-20T00:34:24;1.40;92.70
25450;DHT22;13371;52.080;5.624;2022-11-20T00:36:50;1.30;92.80
25450;DHT22;13371;52.080;5.624;2022-11-20T00:39:15;1.10;92.70
25450;DHT22;13371;52.080;5.624;2022-11-20T00:41:41;1.10;92.80
25450;DHT22;13371;52.080;5.624;2022-11-20T00:44:06;1.10;92.90
25450;DHT22;13371;52.080;5.624;2022-11-20T00:46:32;1.00;92.60
25450;DHT22;13371;52.080;5.624;2022-11-20T00:48:58;0.90;92.80
25450;DHT22;13371;52.080;5.624;2022-11-20T00:51:25;0.70;93.00
25450;DHT22;13371;52.080;5.624;2022-11-20T00:53:54;0.60;93.50
25450;DHT22;13371;52.080;5.624;2022-11-20T00:56:20;0.40;93.70
25450;DHT22;13371;52.080;5.624;2022-11-20T00:58:47;0.30;94.20
25450;DHT22;13371;52.080;5.624;2022-11-20T01:01:15;0.70;93.80
25450;DHT22;13371;52.080;5.624;2022-11-20T01:03:46;0.50;93.50
25450;DHT22;13371;52.080;5.624;2022-11-20T01:06:12;0.20;93.90
25450;DHT22;13371;52.080;5.624;2022-11-20T01:08:39;0.20;94.40
25450;DHT22;13371;52.080;5.624;2022-11-20T01:11:07;0.50;94.20
25450;DHT22;13371;52.080;5.624;2022-11-20T01:13:34;0.50;93.90
25450;DHT22;13371;52.080;5.624;2022-11-20T01:16:17;0.60;93.90
25450;DHT22;13371;52.080;5.624;2022-11-20T01:18:46;0.70;93.70
25450;DHT22;13371;52.080;5.624;2022-11-20T01:21:15;0.50;93.40
25450;DHT22;13371;52.080;5.624;2022-11-20T01:23:42;0.50;93.40
25450;DHT22;13371;52.080;5.624;2022-11-20T01:26:13;0.20;93.80
25450;DHT22;13371;52.080;5.624;2022-11-20T01:28:40;0.20;94.00
25450;DHT22;13371;52.080;5.624;2022-11-20T01:31:25;0.30;93.80
25450;DHT22;13371;52.080;5.624;2022-11-20T01:33:53;0.50;93.60
25450;DHT22;13371;52.080;5.624;2022-11-20T01:36:20;0.80;93.20
25450;DHT22;13371;52.080;5.624;2022-11-20T01:38:46;0.40;92.80
25450;DHT22;13371;52.080;5.624;2022-11-20T01:41:13;0.40;93.70
25450;DHT22;13371;52.080;5.624;2022-11-20T01:44:00;0.30;93.60
25450;DHT22;13371;52.080;5.624;2022-11-20T01:46:26;0.20;93.70
25450;DHT22;13371;52.080;5.624;2022-11-20T01:51:43;0.20;94.60
25450;DHT22;13371;52.080;5.624;2022-11-20T01:54:24;0.50;93.80
25450;DHT22;13371;52.080;5.624;2022-11-20T01:56:52;0.40;93.60
25450;DHT22;13371;52.080;5.624;2022-11-20T01:59:20;0.30;93.70
25450;DHT22;13371;52.080;5.624;2022-11-20T02:01:47;0.40;93.70
25450;DHT22;13371;52.080;5.624;2022-11-20T02:04:13;0.50;93.70
25450;DHT22;13371;52.080;5.624;2022-11-20T02:06:44;0.70;93.30
25450;DHT22;13371;52.080;5.624;2022-11-20T02:09:11;0.70;93.00
25450;DHT22;13371;52.080;5.624;2022-11-20T02:11:37;0.60;93.20
25450;DHT22;13371;52.080;5.624;2022-11-20T02:14:03;0.60;93.20
25450;DHT22;13371;52.080;5.624;2022-11-20T02:16:31;0.30;93.30
25450;DHT22;13371;52.080;5.624;2022-11-20T02:19:00;0.20;94.30
25450;DHT22;13371;52.080;5.624;2022-11-20T02:21:35;0.50;93.80
25450;DHT22;13371;52.080;5.624;2022-11-20T02:24:09;0.30;93.40
25450;DHT22;13371;52.080;5.624;2022-11-20T02:26:50;0.30;93.90
25450;DHT22;13371;52.080;5.624;2022-11-20T02:29:23;0.20;93.60
25450;DHT22;13371;52.080;5.624;2022-11-20T02:31:50;0.10;93.90
25450;DHT22;13371;52.080;5.624;2022-11-20T02:34:16;0.40;93.80
25450;DHT22;13371;52.080;5.624;2022-11-20T02:36:42;0.50;93.40
25450;DHT22;13371;52.080;5.624;2022-11-20T02:39:11;0.60;93.10
25450;DHT22;13371;52.080;5.624;2022-11-20T02:41:38;0.60;93.00
25450;DHT22;13371;52.080;5.624;2022-11-20T02:44:05;0.60;93.10
25450;DHT22;13371;52.080;5.624;2022-11-20T02:46:31;0.40;93.20
25450;DHT22;13371;52.080;5.624;2022-11-20T02:48:57;0.40;93.30
25450;DHT22;13371;52.080;5.624;2022-11-20T02:51:23;0.30;93.30
25450;DHT22;13371;52.080;5.624;2022-11-20T02:53:49;0.20;93.30
25450;DHT22;13371;52.080;5.624;2022-11-20T02:56:15;0.10;93.40
25450;DHT22;13371;52.080;5.624;2022-11-20T02:58:41;-0.20;93.50
25450;DHT22;13371;52.080;5.624;2022-11-20T03:01:06;-0.30;94.00
25450;DHT22;13371;52.080;5.624;2022-11-20T03:03:32;0.00;93.90
25450;DHT22;13371;52.080;5.624;2022-11-20T03:06:01;-0.10;93.80
25450;DHT22;13371;52.080;5.624;2022-11-20T03:08:26;0.20;93.80
25450;DHT22;13371;52.080;5.624;2022-11-20T03:10:52;0.20;93.40
25450;DHT22;13371;52.080;5.624;2022-11-20T03:13:17;0.10;93.40
25450;DHT22;13371;52.080;5.624;2022-11-20T03:15:43;0.10;93.10
25450;DHT22;13371;52.080;5.624;2022-11-20T03:18:09;0.00;93.50
25450;DHT22;13371;52.080;5.624;2022-11-20T03:20:34;0.10;93.40
25450;DHT22;13371;52.080;5.624;2022-11-20T03:23:00;0.10;93.40
25450;DHT22;13371;52.080;5.624;2022-11-20T03:25:26;0.20;93.20
25450;DHT22;13371;52.080;5.624;2022-11-20T03:27:52;0.20;93.20
25450;DHT22;13371;52.080;5.624;2022-11-20T03:30:18;0.40;93.10
25450;DHT22;13371;52.080;5.624;2022-11-20T03:32:44;0.40;93.00
25450;DHT22;13371;52.080;5.624;2022-11-20T03:35:10;0.40;92.70
25450;DHT22;13371;52.080;5.624;2022-11-20T03:37:35;0.10;92.90
25450;DHT22;13371;52.080;5.624;2022-11-20T03:40:01;0.20;93.10
25450;DHT22;13371;52.080;5.624;2022-11-20T03:42:27;0.20;93.10
25450;DHT22;13371;52.080;5.624;2022-11-20T03:45:11;0.30;93.10
25450;DHT22;13371;52.080;5.624;2022-11-20T03:47:37;0.20;93.00
25450;DHT22;13371;52.080;5.624;2022-11-20T03:50:03;0.00;93.30
25450;DHT22;13371;52.080;5.624;2022-11-20T03:52:29;-0.10;93.20
25450;DHT22;13371;52.080;5.624;2022-11-20T03:54:55;-0.10;93.10
25450;DHT22;13371;52.080;5.624;2022-11-20T03:57:20;-0.10;93.30
25450;DHT22;13371;52.080;5.624;2022-11-20T03:59:46;0.00;93.10
25450;DHT22;13371;52.080;5.624;2022-11-20T04:02:12;-0.10;93.00
25450;DHT22;13371;52.080;5.624;2022-11-20T04:04:37;0.00;92.70
25450;DHT22;13371;52.080;5.624;2022-11-20T04:07:03;0.00;93.10
25450;DHT22;13371;52.080;5.624;2022-11-20T04:09:29;-0.40;92.80
25450;DHT22;13371;52.080;5.624;2022-11-20T04:11:55;-0.80;93.60
25450;DHT22;13371;52.080;5.624;2022-11-20T04:14:20;-0.70;94.00
25450;DHT22;13371;52.080;5.624;2022-11-20T04:16:46;-0.60;93.70
25450;DHT22;13371;52.080;5.624;2022-11-20T04:19:14;-0.50;93.70
25450;DHT22;13371;52.080;5.624;2022-11-20T04:21:40;-0.30;93.50
25450;DHT22;13371;52.080;5.624;2022-11-20T04:24:07;-0.30;93.20
25450;DHT22;13371;52.080;5.624;2022-11-20T04:26:33;-0.10;93.10
25450;DHT22;13371;52.080;5.624;2022-11-20T04:28:59;0.00;93.10
25450;DHT22;13371;52.080;5.624;2022-11-20T04:31:29;-0.10;92.60
25450;DHT22;13371;52.080;5.624;2022-11-20T04:33:59;-0.40;92.90
25450;DHT22;13371;52.080;5.624;2022-11-20T04:36:26;-0.30;93.20
25450;DHT22;13371;52.080;5.624;2022-11-20T04:38:56;-0.30;93.00
25450;DHT22;13371;52.080;5.624;2022-11-20T04:41:24;-0.20;92.80
25450;DHT22;13371;52.080;5.624;2022-11-20T04:43:55;-0.20;92.70
25450;DHT22;13371;52.080;5.624;2022-11-20T04:46:26;-0.50;92.90
25450;DHT22;13371;52.080;5.624;2022-11-20T04:48:52;-0.80;93.60
25450;DHT22;13371;52.080;5.624;2022-11-20T04:51:18;-0.60;93.80
25450;DHT22;13371;52.080;5.624;2022-11-20T04:53:43;-0.40;93.40
25450;DHT22;13371;52.080;5.624;2022-11-20T04:56:10;-0.50;93.00
25450;DHT22;13371;52.080;5.624;2022-11-20T04:58:37;-1.10;93.50
25450;DHT22;13371;52.080;5.624;2022-11-20T05:01:08;-1.40;94.30
25450;DHT22;13371;52.080;5.624;2022-11-20T05:03:34;-1.10;94.40
25450;DHT22;13371;52.080;5.624;2022-11-20T05:06:01;-0.90;94.00
25450;DHT22;13371;52.080;5.624;2022-11-20T05:08:27;-1.10;93.80
25450;DHT22;13371;52.080;5.624;2022-11-20T05:10:52;-1.10;93.60
25450;DHT22;13371;52.080;5.624;2022-11-20T05:13:18;-1.50;93.90
25450;DHT22;13371;52.080;5.624;2022-11-20T05:15:43;-1.60;95.10
25450;DHT22;13371;52.080;5.624;2022-11-20T05:18:09;-1.20;94.60
25450;DHT22;13371;52.080;5.624;2022-11-20T05:20:34;-1.10;94.30
25450;DHT22;13371;52.080;5.624;2022-11-20T05:23:01;-0.70;93.70
25450;DHT22;13371;52.080;5.624;2022-11-20T05:25:27;-0.80;93.20
25450;DHT22;13371;52.080;5.624;2022-11-20T05:27:53;-0.80;93.50
25450;DHT22;13371;52.080;5.624;2022-11-20T05:30:19;-0.70;93.40
25450;DHT22;13371;52.080;5.624;2022-11-20T05:32:44;-1.10;93.50
25450;DHT22;13371;52.080;5.624;2022-11-20T05:35:10;-1.00;94.00
25450;DHT22;13371;52.080;5.624;2022-11-20T05:37:35;-0.90;93.90
25450;DHT22;13371;52.080;5.624;2022-11-20T05:40:01;-0.80;93.70
25450;DHT22;13371;52.080;5.624;2022-11-20T05:42:30;-1.00;93.50
25450;DHT22;13371;52.080;5.624;2022-11-20T05:45:00;-1.20;94.20
25450;DHT22;13371;52.080;5.624;2022-11-20T05:47:27;-1.30;94.40
25450;DHT22;13371;52.080;5.624;2022-11-20T05:49:53;-1.00;94.00
25450;DHT22;13371;52.080;5.624;2022-11-20T05:52:19;-0.90;93.60
25450;DHT22;13371;52.080;5.624;2022-11-20T05:54:45;-1.00;93.40
25450;DHT22;13371;52.080;5.624;2022-11-20T05:57:10;-0.80;93.40
25450;DHT22;13371;52.080;5.624;2022-11-20T05:59:36;-0.70;93.20
25450;DHT22;13371;52.080;5.624;2022-11-20T06:02:01;-0.90;93.20
25450;DHT22;13371;52.080;5.624;2022-11-20T06:04:27;-0.80;93.10
25450;DHT22;13371;52.080;5.624;2022-11-20T06:06:52;-0.90;93.20
25450;DHT22;13371;52.080;5.624;2022-11-20T06:09:18;-0.60;92.80
25450;DHT22;13371;52.080;5.624;2022-11-20T06:11:43;-0.70;92.70
25450;DHT22;13371;52.080;5.624;2022-11-20T06:14:09;-0.80;92.90
25450;DHT22;13371;52.080;5.624;2022-11-20T06:16:35;-0.70;92.80
25450;DHT22;13371;52.080;5.624;2022-11-20T06:19:00;-0.80;92.70
25450;DHT22;13371;52.080;5.624;2022-11-20T06:21:26;-1.00;93.00
25450;DHT22;13371;52.080;5.624;2022-11-20T06:23:52;-1.00;93.20
25450;DHT22;13371;52.080;5.624;2022-11-20T06:26:26;-0.70;93.20
25450;DHT22;13371;52.080;5.624;2022-11-20T06:28:53;-0.70;92.80
25450;DHT22;13371;52.080;5.624;2022-11-20T06:31:22;-0.70;92.70
25450;DHT22;13371;52.080;5.624;2022-11-20T06:33:49;-0.70;92.90
25450;DHT22;13371;52.080;5.624;2022-11-20T06:36:16;-0.80;92.80
25450;DHT22;13371;52.080;5.624;2022-11-20T06:38:42;-0.90;92.70
25450;DHT22;13371;52.080;5.624;2022-11-20T06:41:16;-0.90;92.80
25450;DHT22;13371;52.080;5.624;2022-11-20T06:43:42;-0.90;92.60
25450;DHT22;13371;52.080;5.624;2022-11-20T06:46:10;-0.90;92.80
25450;DHT22;13371;52.080;5.624;2022-11-20T06:48:36;-1.00;92.80
25450;DHT22;13371;52.080;5.624;2022-11-20T06:51:06;-1.00;92.90
25450;DHT22;13371;52.080;5.624;2022-11-20T06:53:32;-0.90;92.80
25450;DHT22;13371;52.080;5.624;2022-11-20T06:55:58;-0.90;93.30
25450;DHT22;13371;52.080;5.624;2022-11-20T06:58:27;-1.00;92.80
25450;DHT22;13371;52.080;5.624;2022-11-20T07:01:16;-1.10;93.00
25450;DHT22;13371;52.080;5.624;2022-11-20T07:03:42;-1.20;93.40
25450;DHT22;13371;52.080;5.624;2022-11-20T07:06:08;-1.60;93.70
25450;DHT22;13371;52.080;5.624;2022-11-20T07:08:34;-2.00;94.10
25450;DHT22;13371;52.080;5.624;2022-11-20T07:11:01;-1.60;94.70
25450;DHT22;13371;52.080;5.624;2022-11-20T07:13:28;-1.60;94.50
25450;DHT22;13371;52.080;5.624;2022-11-20T07:15:54;-1.60;94.40
25450;DHT22;13371;52.080;5.624;2022-11-20T07:18:23;-1.60;93.90
25450;DHT22;13371;52.080;5.624;2022-11-20T07:20:48;-1.70;94.50
25450;DHT22;13371;52.080;5.624;2022-11-20T07:23:14;-1.60;94.70
25450;DHT22;13371;52.080;5.624;2022-11-20T07:25:43;-1.80;94.50
25450;DHT22;13371;52.080;5.624;2022-11-20T07:28:11;-1.70;95.20
25450;DHT22;13371;52.080;5.624;2022-11-20T07:30:49;-1.40;95.00
25450;DHT22;13371;52.080;5.624;2022-11-20T07:33:57;-1.20;94.50
25450;DHT22;13371;52.080;5.624;2022-11-20T07:37:13;-1.00;94.20
25450;DHT22;13371;52.080;5.624;2022-11-20T07:39:35;-0.80;94.10
25450;DHT22;13371;52.080;5.624;2022-11-20T07:42:03;-0.90;93.70
25450;DHT22;13371;52.080;5.624;2022-11-20T07:44:29;-0.60;93.80
25450;DHT22;13371;52.080;5.624;2022-11-20T07:46:54;-0.70;93.60
25450;DHT22;13371;52.080;5.624;2022-11-20T07:49:20;-0.50;93.80
25450;DHT22;13371;52.080;5.624;2022-11-20T07:51:45;-0.50;93.90
25450;DHT22;13371;52.080;5.624;2022-11-20T07:54:14;-0.50;93.70
25450;DHT22;13371;52.080;5.624;2022-11-20T07:56:39;-0.60;93.90
25450;DHT22;13371;52.080;5.624;2022-11-20T07:59:05;-0.40;93.80
25450;DHT22;13371;52.080;5.624;2022-11-20T08:01:30;-0.30;94.20
25450;DHT22;13371;52.080;5.624;2022-11-20T08:03:56;0.00;94.70
25450;DHT22;13371;52.080;5.624;2022-11-20T08:06:21;0.90;96.10
25450;DHT22;13371;52.080;5.624;2022-11-20T08:08:47;2.30;96.90
25450;DHT22;13371;52.080;5.624;2022-11-20T08:11:12;3.40;95.30
25450;DHT22;13371;52.080;5.624;2022-11-20T08:13:57;4.10;93.40
25450;DHT22;13371;52.080;5.624;2022-11-20T08:16:43;3.90;87.70
25450;DHT22;13371;52.080;5.624;2022-11-20T08:19:09;3.50;88.60
25450;DHT22;13371;52.080;5.624;2022-11-20T08:21:34;3.00;88.70
25450;DHT22;13371;52.080;5.624;2022-11-20T08:24:00;3.40;88.80
25450;DHT22;13371;52.080;5.624;2022-11-20T08:26:26;2.60;90.20
25450;DHT22;13371;52.080;5.624;2022-11-20T08:28:56;1.10;92.60
25450;DHT22;13371;52.080;5.624;2022-11-20T08:31:25;0.50;94.80
25450;DHT22;13371;52.080;5.624;2022-11-20T08:33:51;0.30;96.30
25450;DHT22;13371;52.080;5.624;2022-11-20T08:36:17;0.70;96.30
25450;DHT22;13371;52.080;5.624;2022-11-20T08:38:47;1.50;95.30
25450;DHT22;13371;52.080;5.624;2022-11-20T08:41:13;2.20;94.60
25450;DHT22;13371;52.080;5.624;2022-11-20T08:44:00;3.00;93.90
25450;DHT22;13371;52.080;5.624;2022-11-20T08:46:31;3.10;91.90
25450;DHT22;13371;52.080;5.624;2022-11-20T08:48:58;3.30;92.30
25450;DHT22;13371;52.080;5.624;2022-11-20T08:51:23;3.50;91.80
25450;DHT22;13371;52.080;5.624;2022-11-20T08:53:49;3.50;92.00
25450;DHT22;13371;52.080;5.624;2022-11-20T08:56:15;3.40;92.10
25450;DHT22;13371;52.080;5.624;2022-11-20T08:58:41;3.40;91.90
25450;DHT22;13371;52.080;5.624;2022-11-20T09:01:06;2.80;92.50
25450;DHT22;13371;52.080;5.624;2022-11-20T09:03:32;2.50;93.10
25450;DHT22;13371;52.080;5.624;2022-11-20T09:06:06;2.10;94.80
25450;DHT22;13371;52.080;5.624;2022-11-20T09:08:31;1.90;95.10
25450;DHT22;13371;52.080;5.624;2022-11-20T09:10:57;1.10;97.00
25450;DHT22;13371;52.080;5.624;2022-11-20T09:13:24;0.90;97.80
25450;DHT22;13371;52.080;5.624;2022-11-20T09:15:57;0.90;98.20
25450;DHT22;13371;52.080;5.624;2022-11-20T09:18:23;0.30;99.40
25450;DHT22;13371;52.080;5.624;2022-11-20T09:20:49;0.60;99.90
25450;DHT22;13371;52.080;5.624;2022-11-20T09:23:16;1.00;99.00
25450;DHT22;13371;52.080;5.624;2022-11-20T09:25:42;1.30;98.30
25450;DHT22;13371;52.080;5.624;2022-11-20T09:28:08;1.50;97.90
25450;DHT22;13371;52.080;5.624;2022-11-20T09:30:34;1.80;97.50
25450;DHT22;13371;52.080;5.624;2022-11-20T09:33:00;1.90;97.30
25450;DHT22;13371;52.080;5.624;2022-11-20T09:35:25;2.10;97.30
25450;DHT22;13371;52.080;5.624;2022-11-20T09:37:51;1.60;97.70
25450;DHT22;13371;52.080;5.624;2022-11-20T09:40:28;1.70;97.90
25450;DHT22;13371;52.080;5.624;2022-11-20T09:54:22;1.50;99.90
25450;DHT22;13371;52.080;5.624;2022-11-20T09:56:55;1.60;99.00
25450;DHT22;13371;52.080;5.624;2022-11-20T10:00:12;1.40;99.50
25450;DHT22;13371;52.080;5.624;2022-11-20T10:02:30;1.30;99.90
25450;DHT22;13371;52.080;5.624;2022-11-20T10:05:05;1.50;99.90
25450;DHT22;13371;52.080;5.624;2022-11-20T10:07:40;1.70;99.90
25450;DHT22;13371;52.080;5.624;2022-11-20T10:10:37;1.80;99.90
25450;DHT22;13371;52.080;5.624;2022-11-20T10:13:27;2.00;99.80
25450;DHT22;13371;52.080;5.624;2022-11-20T10:19:03;1.90;99.70
25450;DHT22;13371;52.080;5.624;2022-11-20T10:22:04;2.00;99.90
25450;DHT22;13371;52.080;5.624;2022-11-20T10:24:54;2.20;99.30
25450;DHT22;13371;52.080;5.624;2022-11-20T10:30:13;1.70;99.90
25450;DHT22;13371;52.080;5.624;2022-11-20T10:33:03;2.30;99.90
25450;DHT22;13371;52.080;5.624;2022-11-20T10:35:58;2.40;99.90
25450;DHT22;13371;52.080;5.624;2022-11-20T10:38:48;2.60;99.60
25450;DHT22;13371;52.080;5.624;2022-11-20T10:41:21;2.60;99.80
25450;DHT22;13371;52.080;5.624;2022-11-20T10:43:58;2.70;99.80
25450;DHT22;13371;52.080;5.624;2022-11-20T10:46:25;2.50;99.90
25450;DHT22;13371;52.080;5.624;2022-11-20T10:48:54;2.50;99.90
25450;DHT22;13371;52.080;5.624;2022-11-20T10:54:29;2.90;99.90
25450;DHT22;13371;52.080;5.624;2022-11-20T10:57:07;2.70;99.90
25450;DHT22;13371;52.080;5.624;2022-11-20T10:59:46;2.90;99.90
25450;DHT22;13371;52.080;5.624;2022-11-20T11:02:24;3.20;99.90
25450;DHT22;13371;52.080;5.624;2022-11-20T11:04:53;3.00;99.90
25450;DHT22;13371;52.080;5.624;2022-11-20T11:07:33;2.90;99.90
25450;DHT22;13371;52.080;5.624;2022-11-20T11:10:00;2.70;99.90
25450;DHT22;13371;52.080;5.624;2022-11-20T11:12:27;2.90;99.90
25450;DHT22;13371;52.080;5.624;2022-11-20T11:14:55;2.60;99.90
25450;DHT22;13371;52.080;5.624;2022-11-20T11:17:24;2.70;99.90
25450;DHT22;13371;52.080;5.624;2022-11-20T11:20:14;2.90;99.90
25450;DHT22;13371;52.080;5.624;2022-11-20T11:23:00;3.30;99.90
25450;DHT22;13371;52.080;5.624;2022-11-20T11:25:36;3.20;99.90
25450;DHT22;13371;52.080;5.624;2022-11-20T11:30:44;3.20;99.90
25450;DHT22;13371;52.080;5.624;2022-11-20T11:33:12;3.50;99.90
25450;DHT22;13371;52.080;5.624;2022-11-20T11:35:52;3.30;99.90
25450;DHT22;13371;52.080;5.624;2022-11-20T11:38:39;3.60;99.90
25450;DHT22;13371;52.080;5.624;2022-11-20T11:41:22;3.80;99.90
25450;DHT22;13371;52.080;5.624;2022-11-20T11:43:53;4.20;99.90
25450;DHT22;13371;52.080;5.624;2022-11-20T11:46:39;3.80;99.90
25450;DHT22;13371;52.080;5.624;2022-11-20T11:51:41;3.20;99.90
25450;DHT22;13371;52.080;5.624;2022-11-20T11:54:16;3.00;99.90
25450;DHT22;13371;52.080;5.624;2022-11-20T11:56:45;3.30;99.90
25450;DHT22;13371;52.080;5.624;2022-11-20T11:59:17;3.30;99.90
25450;DHT22;13371;52.080;5.624;2022-11-20T12:01:52;3.70;99.90
25450;DHT22;13371;52.080;5.624;2022-11-20T12:04:46;3.50;99.90
25450;DHT22;13371;52.080;5.624;2022-11-20T12:07:20;3.30;99.90
25450;DHT22;13371;52.080;5.624;2022-11-20T12:09:52;3.40;99.90
25450;DHT22;13371;52.080;5.624;2022-11-20T12:12:27;3.30;99.90
25450;DHT22;13371;52.080;5.624;2022-11-20T12:14:56;3.50;99.90
25450;DHT22;13371;52.080;5.624;2022-11-20T12:17:22;3.90;99.90
25450;DHT22;13371;52.080;5.624;2022-11-20T12:19:48;4.10;99.90
25450;DHT22;13371;52.080;5.624;2022-11-20T12:25:08;4.30;99.90
25450;DHT22;13371;52.080;5.624;2022-11-20T12:30:27;3.60;99.90
25450;DHT22;13371;52.080;5.624;2022-11-20T12:36:09;4.10;99.90
25450;DHT22;13371;52.080;5.624;2022-11-20T12:39:07;4.40;99.90
25450;DHT22;13371;52.080;5.624;2022-11-20T12:52:54;3.40;99.90
25450;DHT22;13371;52.080;5.624;2022-11-20T12:55:47;3.90;99.90
25450;DHT22;13371;52.080;5.624;2022-11-20T12:58:30;4.10;99.90
25450;DHT22;13371;52.080;5.624;2022-11-20T13:01:06;4.10;99.90
25450;DHT22;13371;52.080;5.624;2022-11-20T13:03:49;3.50;99.90
25450;DHT22;13371;52.080;5.624;2022-11-20T13:06:18;3.40;99.90
25450;DHT22;13371;52.080;5.624;2022-11-20T13:08:55;3.20;99.90
25450;DHT22;13371;52.080;5.624;2022-11-20T13:11:41;3.50;99.90
25450;DHT22;13371;52.080;5.624;2022-11-20T13:14:13;3.30;99.90
25450;DHT22;13371;52.080;5.624;2022-11-20T13:19:15;3.00;99.90
25450;DHT22;13371;52.080;5.624;2022-11-20T13:21:46;3.20;99.90
25450;DHT22;13371;52.080;5.624;2022-11-20T13:24:22;2.70;99.90
25450;DHT22;13371;52.080;5.624;2022-11-20T13:29:36;3.10;99.90
25450;DHT22;13371;52.080;5.624;2022-11-20T13:32:13;2.80;99.90
25450;DHT22;13371;52.080;5.624;2022-11-20T13:34:50;2.80;99.90
25450;DHT22;13371;52.080;5.624;2022-11-20T13:37:33;2.80;99.90
25450;DHT22;13371;52.080;5.624;2022-11-20T13:40:20;3.00;99.90
25450;DHT22;13371;52.080;5.624;2022-11-20T13:42:56;3.10;99.90
25450;DHT22;13371;52.080;5.624;2022-11-20T13:45:23;3.30;99.90
25450;DHT22;13371;52.080;5.624;2022-11-20T13:47:51;3.50;99.90
25450;DHT22;13371;52.080;5.624;2022-11-20T13:50:17;3.20;99.90
25450;DHT22;13371;52.080;5.624;2022-11-20T14:01:17;2.90;99.90
25450;DHT22;13371;52.080;5.624;2022-11-20T14:03:45;2.90;99.90
25450;DHT22;13371;52.080;5.624;2022-11-20T14:06:25;3.00;99.90
25450;DHT22;13371;52.080;5.624;2022-11-20T14:08:51;3.10;99.90
25450;DHT22;13371;52.080;5.624;2022-11-20T14:11:19;2.90;99.90
25450;DHT22;13371;52.080;5.624;2022-11-20T14:13:57;3.30;99.90
25450;DHT22;13371;52.080;5.624;2022-11-20T14:16:24;3.60;99.90
25450;DHT22;13371;52.080;5.624;2022-11-20T14:18:50;3.80;99.90
25450;DHT22;13371;52.080;5.624;2022-11-20T14:21:29;3.60;99.90
25450;DHT22;13371;52.080;5.624;2022-11-20T14:24:21;3.50;99.90
25450;DHT22;13371;52.080;5.624;2022-11-20T14:26:47;4.10;99.90
25450;DHT22;13371;52.080;5.624;2022-11-20T14:29:15;4.60;99.90
25450;DHT22;13371;52.080;5.624;2022-11-20T14:31:42;4.50;99.90
25450;DHT22;13371;52.080;5.624;2022-11-20T14:34:18;4.20;99.90
25450;DHT22;13371;52.080;5.624;2022-11-20T14:36:45;3.80;99.90
25450;DHT22;13371;52.080;5.624;2022-11-20T14:39:12;4.20;99.90
25450;DHT22;13371;52.080;5.624;2022-11-20T14:41:51;3.40;99.90
25450;DHT22;13371;52.080;5.624;2022-11-20T14:44:17;3.30;99.90
25450;DHT22;13371;52.080;5.624;2022-11-20T14:46:44;3.40;99.90
25450;DHT22;13371;52.080;5.624;2022-11-20T14:49:10;3.60;99.90
25450;DHT22;13371;52.080;5.624;2022-11-20T14:51:38;3.60;99.90
25450;DHT22;13371;52.080;5.624;2022-11-20T14:54:20;3.60;99.90
25450;DHT22;13371;52.080;5.624;2022-11-20T14:59:24;3.60;99.90
25450;DHT22;13371;52.080;5.624;2022-11-20T15:01:59;3.70;99.90
25450;DHT22;13371;52.080;5.624;2022-11-20T15:04:25;3.50;99.90
25450;DHT22;13371;52.080;5.624;2022-11-20T15:06:56;3.70;99.90
25450;DHT22;13371;52.080;5.624;2022-11-20T15:09:22;3.40;99.90
25450;DHT22;13371;52.080;5.624;2022-11-20T15:11:57;3.20;99.90
25450;DHT22;13371;52.080;5.624;2022-11-20T15:14:24;2.90;99.90
25450;DHT22;13371;52.080;5.624;2022-11-20T15:16:51;3.00;99.90
25450;DHT22;13371;52.080;5.624;2022-11-20T15:19:20;3.20;99.90
25450;DHT22;13371;52.080;5.624;2022-11-20T15:21:46;3.40;99.90
25450;DHT22;13371;52.080;5.624;2022-11-20T15:24:12;3.10;99.90
25450;DHT22;13371;52.080;5.624;2022-11-20T15:26:38;3.30;99.90
25450;DHT22;13371;52.080;5.624;2022-11-20T15:29:11;3.40;99.90
25450;DHT22;13371;52.080;5.624;2022-11-20T15:31:38;3.80;99.90
25450;DHT22;13371;52.080;5.624;2022-11-20T15:34:12;4.30;99.90
25450;DHT22;13371;52.080;5.624;2022-11-20T15:36:39;4.10;99.90
25450;DHT22;13371;52.080;5.624;2022-11-20T15:39:05;4.30;99.90
25450;DHT22;13371;52.080;5.624;2022-11-20T15:41:33;4.00;99.90
25450;DHT22;13371;52.080;5.624;2022-11-20T15:43:58;4.40;99.90
25450;DHT22;13371;52.080;5.624;2022-11-20T15:46:27;4.50;99.90
25450;DHT22;13371;52.080;5.624;2022-11-20T15:48:57;4.80;99.90
25450;DHT22;13371;52.080;5.624;2022-11-20T15:51:36;4.60;99.90
25450;DHT22;13371;52.080;5.624;2022-11-20T15:54:11;3.90;99.90
25450;DHT22;13371;52.080;5.624;2022-11-20T15:56:37;3.70;99.90
25450;DHT22;13371;52.080;5.624;2022-11-20T15:59:02;3.80;99.90
25450;DHT22;13371;52.080;5.624;2022-11-20T16:01:28;3.70;99.90
25450;DHT22;13371;52.080;5.624;2022-11-20T16:03:54;3.60;99.90
25450;DHT22;13371;52.080;5.624;2022-11-20T16:06:19;3.40;99.90
25450;DHT22;13371;52.080;5.624;2022-11-20T16:08:45;3.20;99.90
25450;DHT22;13371;52.080;5.624;2022-11-20T16:11:16;3.50;99.90
25450;DHT22;13371;52.080;5.624;2022-11-20T16:13:42;3.90;99.90
25450;DHT22;13371;52.080;5.624;2022-11-20T16:16:33;3.70;99.90
25450;DHT22;13371;52.080;5.624;2022-11-20T16:18:59;3.80;99.90
25450;DHT22;13371;52.080;5.624;2022-11-20T16:21:26;3.60;99.90
25450;DHT22;13371;52.080;5.624;2022-11-20T16:24:03;3.80;99.90
25450;DHT22;13371;52.080;5.624;2022-11-20T16:26:29;3.80;99.90
25450;DHT22;13371;52.080;5.624;2022-11-20T16:28:55;3.90;99.90
25450;DHT22;13371;52.080;5.624;2022-11-20T16:31:21;3.80;99.90
25450;DHT22;13371;52.080;5.624;2022-11-20T16:33:51;3.80;99.90
25450;DHT22;13371;52.080;5.624;2022-11-20T16:36:18;3.70;99.90
25450;DHT22;13371;52.080;5.624;2022-11-20T16:38:44;3.70;99.90
25450;DHT22;13371;52.080;5.624;2022-11-20T16:41:10;3.80;99.90
25450;DHT22;13371;52.080;5.624;2022-11-20T16:43:50;3.80;99.90
25450;DHT22;13371;52.080;5.624;2022-11-20T16:46:17;4.20;99.90
25450;DHT22;13371;52.080;5.624;2022-11-20T16:48:44;4.10;99.90
25450;DHT22;13371;52.080;5.624;2022-11-20T16:51:11;3.90;99.90
25450;DHT22;13371;52.080;5.624;2022-11-20T16:53:37;4.20;99.90
25450;DHT22;13371;52.080;5.624;2022-11-20T16:56:13;3.70;99.90
25450;DHT22;13371;52.080;5.624;2022-11-20T16:58:40;3.60;99.90
25450;DHT22;13371;52.080;5.624;2022-11-20T17:01:07;3.80;99.90
25450;DHT22;13371;52.080;5.624;2022-11-20T17:03:38;4.10;99.90